createdAt,value
2017-05-31T00:00:21.384Z,0
2017-05-31T00:01:30.429Z,0
2017-05-31T00:02:39.320Z,0
2017-05-31T00:03:48.211Z,0
2017-05-31T00:04:57.435Z,0
2017-05-31T00:06:06.650Z,0
2017-05-31T00:07:15.840Z,0
2017-05-31T00:08:25.056Z,0
2017-05-31T00:09:34.604Z,0
2017-05-31T00:10:43.495Z,0
2017-05-31T00:11:52.792Z,0
2017-05-31T00:13:01.982Z,0
2017-05-31T00:14:11.195Z,0
2017-05-31T00:15:20.413Z,0
2017-05-31T00:16:29.651Z,0
2017-05-31T00:17:38.871Z,0
2017-05-31T00:18:47.812Z,0
2017-05-31T00:19:57.027Z,0
2017-05-31T00:21:05.920Z,0
2017-05-31T00:22:14.809Z,0
2017-05-31T00:23:23.713Z,0
2017-05-31T00:24:32.767Z,0
2017-05-31T00:25:41.659Z,0
2017-05-31T00:26:50.549Z,0
2017-05-31T00:27:59.764Z,0
2017-05-31T00:29:08.653Z,0
2017-05-31T00:30:17.697Z,0
2017-05-31T00:31:26.592Z,0
2017-05-31T00:32:35.805Z,0
2017-05-31T00:33:45.017Z,0
2017-05-31T00:34:53.910Z,0
2017-05-31T00:36:03.227Z,0
2017-05-31T00:37:12.118Z,0
2017-05-31T00:38:21.012Z,0
2017-05-31T00:39:29.899Z,0
2017-05-31T00:40:38.792Z,0
2017-05-31T00:41:48.011Z,0
2017-05-31T00:42:56.906Z,0
2017-05-31T00:44:06.120Z,0
2017-05-31T00:45:15.010Z,0
2017-05-31T00:46:23.903Z,0
2017-05-31T00:47:33.298Z,0
2017-05-31T00:48:42.510Z,0
2017-05-31T00:49:51.724Z,0
2017-05-31T00:51:00.621Z,0
2017-05-31T00:52:09.835Z,0
2017-05-31T00:53:18.878Z,0
2017-05-31T00:54:27.775Z,0
2017-05-31T00:55:36.663Z,0
2017-05-31T00:56:45.549Z,0
2017-05-31T00:57:54.438Z,0
2017-05-31T00:59:03.485Z,0
2017-05-31T01:00:12.380Z,0
2017-05-31T01:01:21.592Z,0
2017-05-31T01:02:30.814Z,0
2017-05-31T01:03:39.709Z,0
2017-05-31T01:04:48.923Z,0
2017-05-31T01:05:58.154Z,0
2017-05-31T01:07:07.053Z,0
2017-05-31T01:08:15.942Z,0
2017-05-31T01:09:25.158Z,0
2017-05-31T01:10:34.681Z,0
2017-05-31T01:11:43.573Z,0
2017-05-31T01:12:52.460Z,0
2017-05-31T01:14:01.351Z,0
2017-05-31T01:15:10.242Z,0
2017-05-31T01:16:19.283Z,0
2017-05-31T01:17:28.178Z,0
2017-05-31T01:18:37.073Z,0
2017-05-31T01:19:45.963Z,0
2017-05-31T01:20:55.179Z,0
2017-05-31T01:22:04.650Z,0
2017-05-31T01:23:13.867Z,0
2017-05-31T01:24:22.757Z,0
2017-05-31T01:25:31.976Z,0
2017-05-31T01:26:41.193Z,0
2017-05-31T01:27:50.232Z,0
2017-05-31T01:28:59.446Z,0
2017-05-31T01:30:08.344Z,0
2017-05-31T01:31:17.240Z,0
2017-05-31T01:32:26.453Z,0
2017-05-31T01:33:35.673Z,0
2017-05-31T01:34:45.209Z,0
2017-05-31T01:35:54.748Z,0
2017-05-31T01:37:03.642Z,0
2017-05-31T01:38:12.532Z,0
2017-05-31T01:39:21.419Z,0
2017-05-31T01:40:30.315Z,0
2017-05-31T01:41:39.209Z,0
2017-05-31T01:42:48.094Z,0
2017-05-31T01:43:56.986Z,0
2017-05-31T01:45:06.503Z,0
2017-05-31T01:46:15.390Z,0
2017-05-31T01:47:24.287Z,0
2017-05-31T01:48:33.508Z,0
2017-05-31T01:49:42.397Z,0
2017-05-31T01:50:51.491Z,0
2017-05-31T01:52:00.384Z,0
2017-05-31T01:53:09.278Z,0
2017-05-31T01:54:18.164Z,0
2017-05-31T01:55:27.065Z,0
2017-05-31T01:56:36.657Z,0
2017-05-31T01:57:45.548Z,0
2017-05-31T01:58:54.820Z,0
2017-05-31T02:00:04.048Z,0
2017-05-31T02:01:12.935Z,0
2017-05-31T02:02:21.825Z,0
2017-05-31T02:03:31.365Z,0
2017-05-31T02:04:40.254Z,0
2017-05-31T02:05:49.467Z,0
2017-05-31T02:06:58.685Z,0
2017-05-31T02:08:08.700Z,0
2017-05-31T02:09:17.590Z,0
2017-05-31T02:10:26.480Z,0
2017-05-31T02:11:35.375Z,0
2017-05-31T02:12:44.918Z,0
2017-05-31T02:13:54.432Z,0
2017-05-31T02:15:03.319Z,0
2017-05-31T02:16:12.861Z,0
2017-05-31T02:17:22.077Z,0
2017-05-31T02:18:30.971Z,0
2017-05-31T02:19:40.282Z,0
2017-05-31T02:20:49.495Z,0
2017-05-31T02:21:58.710Z,0
2017-05-31T02:23:07.609Z,0
2017-05-31T02:24:16.836Z,0
2017-05-31T02:25:26.127Z,0
2017-05-31T02:26:35.021Z,4
2017-05-31T02:27:44.236Z,4
2017-05-31T02:28:53.127Z,4
2017-05-31T02:30:02.020Z,0
2017-05-31T02:31:11.389Z,4
2017-05-31T02:32:20.278Z,4
2017-05-31T02:33:29.830Z,0
2017-05-31T02:34:39.049Z,4
2017-05-31T02:35:47.940Z,4
2017-05-31T02:36:56.980Z,4
2017-05-31T02:38:05.870Z,4
2017-05-31T02:39:15.089Z,8
2017-05-31T02:40:24.308Z,4
2017-05-31T02:41:33.851Z,8
2017-05-31T02:42:43.215Z,8
2017-05-31T02:43:52.108Z,8
2017-05-31T02:45:01.008Z,8
2017-05-31T02:46:10.546Z,12
2017-05-31T02:47:19.436Z,12
2017-05-31T02:48:28.384Z,12
2017-05-31T02:49:37.278Z,16
2017-05-31T02:50:46.166Z,20
2017-05-31T02:51:55.057Z,20
2017-05-31T02:53:04.601Z,24
2017-05-31T02:54:14.197Z,24
2017-05-31T02:55:23.089Z,28
2017-05-31T02:56:32.305Z,28
2017-05-31T02:57:41.192Z,32
2017-05-31T02:58:50.088Z,36
2017-05-31T02:59:58.981Z,44
2017-05-31T03:01:07.874Z,48
2017-05-31T03:02:16.767Z,56
2017-05-31T03:03:25.682Z,68
2017-05-31T03:04:34.900Z,76
2017-05-31T03:05:44.037Z,88
2017-05-31T03:06:53.262Z,100
2017-05-31T03:08:02.153Z,116
2017-05-31T03:09:11.369Z,128
2017-05-31T03:10:20.259Z,136
2017-05-31T03:11:29.153Z,144
2017-05-31T03:12:38.044Z,156
2017-05-31T03:13:46.932Z,164
2017-05-31T03:14:55.825Z,180
2017-05-31T03:16:05.050Z,192
2017-05-31T03:17:14.091Z,204
2017-05-31T03:18:22.984Z,208
2017-05-31T03:19:31.873Z,228
2017-05-31T03:20:40.772Z,240
2017-05-31T03:21:49.662Z,256
2017-05-31T03:22:58.550Z,280
2017-05-31T03:24:07.441Z,284
2017-05-31T03:25:16.669Z,300
2017-05-31T03:26:25.879Z,312
2017-05-31T03:27:34.771Z,328
2017-05-31T03:28:44.139Z,348
2017-05-31T03:29:53.354Z,364
2017-05-31T03:31:02.281Z,372
2017-05-31T03:32:11.499Z,384
2017-05-31T03:33:20.383Z,404
2017-05-31T03:34:29.671Z,420
2017-05-31T03:35:39.214Z,436
2017-05-31T03:36:48.429Z,456
2017-05-31T03:37:57.644Z,464
2017-05-31T03:39:06.543Z,476
2017-05-31T03:40:15.588Z,496
2017-05-31T03:41:24.485Z,508
2017-05-31T03:42:33.383Z,524
2017-05-31T03:43:42.269Z,536
2017-05-31T03:44:51.484Z,552
2017-05-31T03:46:00.379Z,564
2017-05-31T03:47:09.594Z,588
2017-05-31T03:48:18.496Z,600
2017-05-31T03:49:27.705Z,612
2017-05-31T03:50:36.597Z,624
2017-05-31T03:51:45.737Z,636
2017-05-31T03:52:54.635Z,648
2017-05-31T03:54:03.528Z,664
2017-05-31T03:55:12.750Z,676
2017-05-31T03:56:22.291Z,700
2017-05-31T03:58:03.490Z,732
2017-05-31T03:59:12.379Z,724
2017-05-31T04:00:21.275Z,740
2017-05-31T04:01:30.492Z,760
2017-05-31T04:02:39.446Z,784
2017-05-31T04:03:48.657Z,788
2017-05-31T04:04:57.610Z,804
2017-05-31T04:06:06.509Z,832
2017-05-31T04:07:15.724Z,836
2017-05-31T04:08:25.090Z,828
2017-05-31T04:09:33.989Z,840
2017-05-31T04:10:42.905Z,864
2017-05-31T04:11:52.440Z,872
2017-05-31T04:13:01.332Z,888
2017-05-31T04:14:10.850Z,908
2017-05-31T04:15:19.739Z,920
2017-05-31T04:16:28.631Z,932
2017-05-31T04:17:38.200Z,948
2017-05-31T04:18:47.091Z,964
2017-05-31T04:19:56.281Z,992
2017-05-31T04:21:05.174Z,1024
2017-05-31T04:22:14.063Z,1092
2017-05-31T04:23:23.281Z,1204
2017-05-31T04:24:32.170Z,1100
2017-05-31T04:25:41.131Z,1080
2017-05-31T04:26:50.019Z,1076
2017-05-31T04:27:59.233Z,1068
2017-05-31T04:29:08.123Z,1028
2017-05-31T04:30:17.342Z,1012
2017-05-31T04:31:26.385Z,996
2017-05-31T04:32:35.595Z,1004
2017-05-31T04:33:44.483Z,1084
2017-05-31T04:34:53.705Z,1096
2017-05-31T04:36:02.597Z,1120
2017-05-31T04:37:11.591Z,1128
2017-05-31T04:38:20.806Z,1168
2017-05-31T04:39:30.032Z,1172
2017-05-31T04:40:38.939Z,1180
2017-05-31T04:41:47.825Z,1184
2017-05-31T04:42:56.933Z,1196
2017-05-31T04:44:06.476Z,1200
2017-05-31T04:45:15.363Z,1252
2017-05-31T04:46:24.252Z,1388
2017-05-31T04:47:33.148Z,1948
2017-05-31T04:48:42.088Z,1780
2017-05-31T04:49:51.301Z,1696
2017-05-31T04:51:00.197Z,1448
2017-05-31T04:52:09.086Z,1292
2017-05-31T04:53:18.298Z,1296
2017-05-31T04:54:27.342Z,1528
2017-05-31T04:55:36.234Z,1300
2017-05-31T04:56:45.121Z,1384
2017-05-31T04:57:54.009Z,1392
2017-05-31T04:59:03.227Z,1416
2017-05-31T05:00:12.924Z,1864
2017-05-31T05:01:22.142Z,1760
2017-05-31T05:02:31.040Z,1452
2017-05-31T05:03:40.255Z,2000
2017-05-31T05:04:49.147Z,2604
2017-05-31T05:05:58.297Z,2248
2017-05-31T05:07:07.194Z,2316
2017-05-31T05:08:16.085Z,2172
2017-05-31T05:09:24.982Z,2240
2017-05-31T05:10:33.881Z,2176
2017-05-31T05:11:43.247Z,2052
2017-05-31T05:12:52.141Z,2036
2017-05-31T05:14:01.033Z,1840
2017-05-31T05:15:09.933Z,1800
2017-05-31T05:16:18.840Z,2028
2017-05-31T05:17:27.888Z,2540
2017-05-31T05:18:37.106Z,2288
2017-05-31T05:19:46.006Z,2064
2017-05-31T05:20:54.922Z,1964
2017-05-31T05:22:04.146Z,2324
2017-05-31T05:23:13.043Z,2292
2017-05-31T05:24:21.956Z,2544
2017-05-31T05:25:30.850Z,2404
2017-05-31T05:26:39.752Z,2600
2017-05-31T05:27:48.647Z,2352
2017-05-31T05:28:57.540Z,2248
2017-05-31T05:30:06.434Z,3228
2017-05-31T05:31:15.328Z,3560
2017-05-31T05:32:24.606Z,3208
2017-05-31T05:33:33.507Z,2868
2017-05-31T05:34:42.399Z,2524
2017-05-31T05:35:51.293Z,2168
2017-05-31T05:37:00.189Z,1548
2017-05-31T05:38:09.407Z,1916
2017-05-31T05:39:18.304Z,1700
2017-05-31T05:40:27.296Z,2284
2017-05-31T05:41:36.195Z,2484
2017-05-31T05:42:45.088Z,1852
2017-05-31T05:43:53.981Z,1524
2017-05-31T05:45:02.875Z,1696
2017-05-31T05:46:12.242Z,1588
2017-05-31T05:47:21.460Z,1604
2017-05-31T05:48:30.355Z,1796
2017-05-31T05:49:39.251Z,1992
2017-05-31T05:50:48.152Z,1728
2017-05-31T05:51:57.148Z,2864
2017-05-31T05:53:06.041Z,2312
2017-05-31T05:54:14.934Z,2624
2017-05-31T05:55:23.831Z,4584
2017-05-31T05:56:33.075Z,2572
2017-05-31T05:57:42.268Z,3048
2017-05-31T05:58:51.165Z,1804
2017-05-31T06:00:00.072Z,2144
2017-05-31T06:01:09.286Z,4472
2017-05-31T06:02:18.509Z,4644
2017-05-31T06:03:27.727Z,3752
2017-05-31T06:04:36.947Z,2408
2017-05-31T06:05:46.173Z,2020
2017-05-31T06:06:55.070Z,1828
2017-05-31T06:08:03.965Z,1796
2017-05-31T06:09:13.006Z,1720
2017-05-31T06:10:22.233Z,2936
2017-05-31T06:11:31.127Z,1788
2017-05-31T06:12:40.023Z,1776
2017-05-31T06:13:48.925Z,1548
2017-05-31T06:14:58.443Z,1520
2017-05-31T06:16:07.340Z,1560
2017-05-31T06:17:16.566Z,1728
2017-05-31T06:18:25.457Z,2000
2017-05-31T06:19:34.679Z,3024
2017-05-31T06:20:43.952Z,3632
2017-05-31T06:21:52.850Z,3848
2017-05-31T06:23:02.394Z,2624
2017-05-31T06:24:11.293Z,3152
2017-05-31T06:25:20.187Z,4076
2017-05-31T06:26:29.335Z,5216
2017-05-31T06:27:38.239Z,3356
2017-05-31T06:28:47.789Z,2596
2017-05-31T06:29:56.682Z,3612
2017-05-31T06:31:05.576Z,6324
2017-05-31T06:32:14.903Z,3232
2017-05-31T06:33:23.795Z,4060
2017-05-31T06:34:33.011Z,5408
2017-05-31T06:35:41.967Z,3392
2017-05-31T06:36:51.190Z,3280
2017-05-31T06:38:00.456Z,3912
2017-05-31T06:39:09.350Z,2416
2017-05-31T06:40:18.249Z,1644
2017-05-31T06:41:27.469Z,2312
2017-05-31T06:42:36.690Z,1796
2017-05-31T06:43:45.963Z,2496
2017-05-31T06:44:54.858Z,1948
2017-05-31T06:46:03.757Z,2452
2017-05-31T06:47:12.977Z,2936
2017-05-31T06:48:21.876Z,4092
2017-05-31T06:49:30.924Z,5584
2017-05-31T06:50:39.818Z,4408
2017-05-31T06:51:48.712Z,4824
2017-05-31T06:52:57.613Z,3392
2017-05-31T06:54:06.838Z,4576
2017-05-31T06:55:15.884Z,4980
2017-05-31T06:56:24.781Z,5272
2017-05-31T06:57:34.014Z,2984
2017-05-31T06:58:43.240Z,2256
2017-05-31T06:59:52.468Z,2028
2017-05-31T07:01:01.813Z,1648
2017-05-31T07:02:11.031Z,1988
2017-05-31T07:03:19.932Z,2380
2017-05-31T07:04:29.498Z,3276
2017-05-31T07:05:38.720Z,2788
2017-05-31T07:06:47.764Z,3464
2017-05-31T07:07:56.662Z,3792
2017-05-31T07:09:05.890Z,5172
2017-05-31T07:10:14.782Z,3600
2017-05-31T07:11:23.676Z,2656
2017-05-31T07:12:32.668Z,3080
2017-05-31T07:13:41.899Z,2880
2017-05-31T07:14:50.794Z,4412
2017-05-31T07:16:00.015Z,3596
2017-05-31T07:17:08.913Z,2664
2017-05-31T07:18:18.116Z,3060
2017-05-31T07:19:27.658Z,3188
2017-05-31T07:20:36.552Z,3296
2017-05-31T07:21:45.523Z,5508
2017-05-31T07:22:54.761Z,2352
2017-05-31T07:24:03.807Z,3076
2017-05-31T07:25:12.706Z,4104
2017-05-31T07:26:21.600Z,5308
2017-05-31T07:27:30.824Z,5156
2017-05-31T07:28:39.721Z,3472
2017-05-31T07:29:49.019Z,2104
2017-05-31T07:30:57.920Z,2756
2017-05-31T07:32:07.478Z,2456
2017-05-31T07:33:16.373Z,3576
2017-05-31T07:34:25.315Z,3204
2017-05-31T07:35:34.566Z,2444
2017-05-31T07:36:43.786Z,2308
2017-05-31T07:37:52.681Z,3056
2017-05-31T07:39:01.580Z,3856
2017-05-31T07:40:10.475Z,4100
2017-05-31T07:41:19.852Z,4408
2017-05-31T07:42:29.085Z,5656
2017-05-31T07:43:37.979Z,4220
2017-05-31T07:44:46.872Z,4208
2017-05-31T07:45:56.094Z,4640
2017-05-31T07:47:05.475Z,4572
2017-05-31T07:48:14.370Z,4380
2017-05-31T07:49:23.263Z,3772
2017-05-31T07:50:32.487Z,4320
2017-05-31T07:51:41.705Z,6244
2017-05-31T07:52:51.079Z,6000
2017-05-31T07:54:00.308Z,3976
2017-05-31T07:55:09.539Z,4120
2017-05-31T07:56:18.436Z,4068
2017-05-31T07:57:27.334Z,3936
2017-05-31T07:58:36.387Z,6656
2017-05-31T07:59:45.278Z,6500
2017-05-31T08:00:54.176Z,5040
2017-05-31T08:02:03.400Z,2844
2017-05-31T08:03:12.295Z,2596
2017-05-31T08:04:21.492Z,2208
2017-05-31T08:05:30.718Z,1924
2017-05-31T08:06:39.615Z,2376
2017-05-31T08:07:48.517Z,2568
2017-05-31T08:08:57.414Z,2456
2017-05-31T08:10:06.659Z,2788
2017-05-31T08:11:15.558Z,3348
2017-05-31T08:12:25.110Z,3224
2017-05-31T08:13:34.010Z,6036
2017-05-31T08:14:43.236Z,7248
2017-05-31T08:15:52.235Z,4448
2017-05-31T08:17:01.129Z,4612
2017-05-31T08:18:10.676Z,5272
2017-05-31T08:19:19.572Z,5652
2017-05-31T08:20:28.472Z,4992
2017-05-31T08:21:37.426Z,6124
2017-05-31T08:22:46.648Z,4548
2017-05-31T08:23:55.547Z,4408
2017-05-31T08:25:04.446Z,4028
2017-05-31T08:26:13.662Z,3716
2017-05-31T08:27:22.708Z,4712
2017-05-31T08:28:31.603Z,5712
2017-05-31T08:29:40.578Z,4492
2017-05-31T08:30:49.472Z,2828
2017-05-31T08:31:58.369Z,3000
2017-05-31T08:33:07.844Z,2776
2017-05-31T08:34:17.066Z,2940
2017-05-31T08:35:25.964Z,2860
2017-05-31T08:36:34.865Z,3428
2017-05-31T08:37:43.800Z,4280
2017-05-31T08:38:53.500Z,5936
2017-05-31T08:40:02.397Z,5388
2017-05-31T08:41:11.621Z,3432
2017-05-31T08:42:20.521Z,2568
2017-05-31T08:43:29.741Z,2288
2017-05-31T08:44:38.789Z,2764
2017-05-31T08:45:47.687Z,4600
2017-05-31T08:46:56.583Z,6300
2017-05-31T08:48:05.481Z,6360
2017-05-31T08:49:14.702Z,6992
2017-05-31T08:50:23.904Z,7368
2017-05-31T08:51:32.798Z,5580
2017-05-31T08:52:42.047Z,3696
2017-05-31T08:53:50.943Z,2600
2017-05-31T08:54:59.836Z,3052
2017-05-31T08:56:09.220Z,2632
2017-05-31T08:57:18.446Z,1992
2017-05-31T08:58:27.991Z,2032
2017-05-31T08:59:37.271Z,2668
2017-05-31T09:00:46.500Z,3924
2017-05-31T09:01:55.552Z,6368
2017-05-31T09:03:04.452Z,5572
2017-05-31T09:04:13.674Z,5420
2017-05-31T09:05:22.574Z,5712
2017-05-31T09:06:31.796Z,7536
2017-05-31T09:07:41.172Z,5916
2017-05-31T09:08:50.072Z,5504
2017-05-31T09:09:58.975Z,3664
2017-05-31T09:11:08.196Z,2868
2017-05-31T09:12:17.100Z,4152
2017-05-31T09:13:26.048Z,3208
2017-05-31T09:14:35.269Z,4388
2017-05-31T09:15:44.198Z,6364
2017-05-31T09:16:53.094Z,6980
2017-05-31T09:18:02.319Z,4516
2017-05-31T09:19:11.542Z,6812
2017-05-31T09:20:20.777Z,5748
2017-05-31T09:21:29.678Z,3304
2017-05-31T09:22:38.899Z,3636
2017-05-31T09:23:47.795Z,2840
2017-05-31T09:24:56.743Z,4068
2017-05-31T09:26:05.637Z,6728
2017-05-31T09:27:14.535Z,8708
2017-05-31T09:28:23.761Z,8168
2017-05-31T09:29:32.684Z,5456
2017-05-31T09:30:42.052Z,6904
2017-05-31T09:31:51.275Z,7968
2017-05-31T09:33:00.174Z,6400
2017-05-31T09:34:09.070Z,3568
2017-05-31T09:35:18.290Z,2384
2017-05-31T09:36:27.251Z,2312
2017-05-31T09:37:36.529Z,2404
2017-05-31T09:38:45.426Z,2272
2017-05-31T09:39:54.644Z,2260
2017-05-31T09:41:03.867Z,2264
2017-05-31T09:42:12.774Z,2520
2017-05-31T09:43:21.670Z,2656
2017-05-31T09:44:30.566Z,3168
2017-05-31T09:45:39.463Z,4468
2017-05-31T09:46:48.365Z,6868
2017-05-31T09:47:57.366Z,6132
2017-05-31T09:49:06.911Z,3996
2017-05-31T09:50:15.810Z,3580
2017-05-31T09:51:24.710Z,2956
2017-05-31T09:52:33.930Z,3208
2017-05-31T09:53:43.026Z,4372
2017-05-31T09:54:51.922Z,5064
2017-05-31T09:56:00.820Z,5660
2017-05-31T09:57:09.712Z,4384
2017-05-31T09:58:19.008Z,3696
2017-05-31T09:59:27.957Z,3328
2017-05-31T10:00:37.180Z,3420
2017-05-31T10:01:46.079Z,4264
2017-05-31T10:02:55.300Z,3892
2017-05-31T10:04:04.518Z,5588
2017-05-31T10:05:13.717Z,5168
2017-05-31T10:06:22.615Z,5564
2017-05-31T10:07:31.507Z,5976
2017-05-31T10:08:40.403Z,4960
2017-05-31T10:09:49.303Z,5484
2017-05-31T10:10:58.500Z,3872
2017-05-31T10:12:08.055Z,4636
2017-05-31T10:13:16.954Z,5924
2017-05-31T10:14:25.856Z,6128
2017-05-31T10:15:34.752Z,6752
2017-05-31T10:16:44.128Z,6360
2017-05-31T10:17:53.690Z,6988
2017-05-31T10:19:02.911Z,8064
2017-05-31T10:20:12.781Z,5800
2017-05-31T10:21:21.681Z,6692
2017-05-31T10:22:30.727Z,5800
2017-05-31T10:23:39.624Z,7064
2017-05-31T10:24:48.542Z,7020
2017-05-31T10:25:57.761Z,4204
2017-05-31T10:27:06.985Z,6272
2017-05-31T10:28:16.286Z,7532
2017-05-31T10:29:25.199Z,9732
2017-05-31T10:30:34.099Z,9148
2017-05-31T10:31:42.992Z,5456
2017-05-31T10:32:51.893Z,3132
2017-05-31T10:34:00.942Z,2440
2017-05-31T10:35:09.837Z,2672
2017-05-31T10:36:18.737Z,2628
2017-05-31T10:37:27.634Z,2668
2017-05-31T10:38:36.532Z,2768
2017-05-31T10:39:45.636Z,2952
2017-05-31T10:40:54.864Z,2908
2017-05-31T10:42:03.757Z,3232
2017-05-31T10:43:12.653Z,4568
2017-05-31T10:44:21.560Z,6644
2017-05-31T10:45:30.780Z,4608
2017-05-31T10:46:40.011Z,5904
2017-05-31T10:47:48.908Z,5884
2017-05-31T10:48:58.135Z,5868
2017-05-31T10:50:07.042Z,6768
2017-05-31T10:51:16.420Z,7308
2017-05-31T10:52:25.644Z,6548
2017-05-31T10:53:34.544Z,7424
2017-05-31T10:54:43.441Z,6548
2017-05-31T10:55:52.672Z,3568
2017-05-31T10:57:01.667Z,5000
2017-05-31T10:58:10.893Z,4104
2017-05-31T10:59:20.123Z,4196
2017-05-31T11:00:29.348Z,7352
2017-05-31T11:01:38.248Z,8700
2017-05-31T11:02:47.455Z,6832
2017-05-31T11:03:56.677Z,5604
2017-05-31T11:05:06.222Z,7888
2017-05-31T11:06:15.448Z,7496
2017-05-31T11:07:25.003Z,4956
2017-05-31T11:08:34.054Z,5612
2017-05-31T11:09:42.958Z,6036
2017-05-31T11:10:51.857Z,8192
2017-05-31T11:12:00.753Z,6712
2017-05-31T11:13:09.651Z,7452
2017-05-31T11:14:18.751Z,8628
2017-05-31T11:15:27.646Z,7968
2017-05-31T11:16:36.864Z,9924
2017-05-31T11:17:46.089Z,10680
2017-05-31T11:18:54.985Z,8776
2017-05-31T11:20:04.213Z,6136
2017-05-31T11:21:13.761Z,6808
2017-05-31T11:22:22.661Z,8688
2017-05-31T11:23:31.884Z,8076
2017-05-31T11:24:40.777Z,7396
2017-05-31T11:25:49.672Z,4960
2017-05-31T11:26:58.899Z,3844
2017-05-31T11:28:07.797Z,4504
2017-05-31T11:29:16.698Z,5120
2017-05-31T11:30:25.614Z,4932
2017-05-31T11:31:34.661Z,6952
2017-05-31T11:32:43.561Z,9632
2017-05-31T11:33:52.458Z,9272
2017-05-31T11:35:01.352Z,7656
2017-05-31T11:36:10.250Z,5584
2017-05-31T11:37:19.302Z,5316
2017-05-31T11:38:28.203Z,8752
2017-05-31T11:39:37.426Z,9496
2017-05-31T11:40:46.322Z,6792
2017-05-31T11:41:55.226Z,3868
2017-05-31T11:43:04.273Z,4024
2017-05-31T11:44:13.177Z,4852
2017-05-31T11:45:22.082Z,7568
2017-05-31T11:46:30.978Z,7764
2017-05-31T11:47:39.936Z,7696
2017-05-31T11:48:49.637Z,10620
2017-05-31T11:49:58.853Z,10308
2017-05-31T11:51:07.750Z,11164
2017-05-31T11:52:16.653Z,10892
2017-05-31T11:53:25.550Z,7248
2017-05-31T11:54:34.544Z,95776
2017-05-31T11:55:43.442Z,93856
2017-05-31T11:56:52.344Z,87680
2017-05-31T11:58:01.259Z,91264
2017-05-31T11:59:10.488Z,95040
2017-05-31T12:00:19.813Z,96512
2017-05-31T12:01:28.715Z,99328
2017-05-31T12:02:37.632Z,100992
2017-05-31T12:03:46.535Z,99168
2017-05-31T12:04:55.439Z,101504
2017-05-31T12:06:04.400Z,100480
2017-05-31T12:07:13.641Z,91328
2017-05-31T12:08:22.541Z,92064
2017-05-31T12:09:31.443Z,99360
2017-05-31T12:10:40.346Z,96768
2017-05-31T12:11:49.352Z,87456
2017-05-31T12:12:58.254Z,84928
2017-05-31T12:14:07.162Z,85536
2017-05-31T12:15:16.071Z,66272
2017-05-31T12:16:25.308Z,8564
2017-05-31T12:17:35.114Z,25600
2017-05-31T12:18:44.347Z,49824
2017-05-31T12:19:53.683Z,49568
2017-05-31T12:21:02.586Z,50208
2017-05-31T12:22:11.491Z,53536
2017-05-31T12:23:20.499Z,7256
2017-05-31T12:24:29.739Z,53568
2017-05-31T12:25:38.656Z,63392
2017-05-31T12:26:47.564Z,68992
2017-05-31T12:27:56.469Z,82784
2017-05-31T12:29:05.372Z,95488
2017-05-31T12:30:14.279Z,100672
2017-05-31T12:31:23.191Z,97440
2017-05-31T12:32:32.751Z,92672
2017-05-31T12:33:41.981Z,97216
2017-05-31T12:34:51.039Z,97856
2017-05-31T12:35:59.951Z,8508
2017-05-31T12:37:09.187Z,99968
2017-05-31T12:38:18.096Z,96352
2017-05-31T12:39:27.016Z,105888
2017-05-31T12:40:36.555Z,106048
2017-05-31T12:41:45.784Z,102208
2017-05-31T12:42:54.760Z,92128
2017-05-31T12:44:03.673Z,93984
2017-05-31T12:45:12.918Z,99168
2017-05-31T12:46:22.451Z,97408
2017-05-31T12:47:31.691Z,98176
2017-05-31T12:48:40.600Z,97984
2017-05-31T12:49:49.518Z,92480
2017-05-31T12:50:58.763Z,94496
2017-05-31T12:52:07.879Z,91936
2017-05-31T12:53:16.786Z,92576
2017-05-31T12:54:25.753Z,98176
2017-05-31T12:55:34.665Z,103168
2017-05-31T12:56:43.576Z,100480
2017-05-31T12:57:52.833Z,100448
2017-05-31T12:59:02.130Z,100320
2017-05-31T13:00:11.042Z,68800
2017-05-31T13:01:19.963Z,54112
2017-05-31T13:02:28.874Z,91488
2017-05-31T13:03:37.890Z,34016
2017-05-31T13:04:46.796Z,8548
2017-05-31T13:05:55.712Z,13156
2017-05-31T13:07:04.626Z,60192
2017-05-31T13:08:13.540Z,76320
2017-05-31T13:09:22.602Z,44096
2017-05-31T13:10:31.528Z,82720
2017-05-31T13:11:40.761Z,87552
2017-05-31T13:12:49.993Z,13256
2017-05-31T13:13:58.898Z,75776
2017-05-31T13:15:08.285Z,18496
2017-05-31T13:16:17.198Z,83072
2017-05-31T13:17:26.110Z,82592
2017-05-31T13:18:35.026Z,24736
2017-05-31T13:19:43.943Z,85824
2017-05-31T13:20:53.331Z,83552
2017-05-31T13:22:02.584Z,81184
2017-05-31T13:23:12.165Z,74976
2017-05-31T13:24:21.083Z,82752
2017-05-31T13:25:30.318Z,92928
2017-05-31T13:26:39.327Z,89344
2017-05-31T13:27:48.568Z,86816
2017-05-31T13:28:57.478Z,84256
2017-05-31T13:30:06.715Z,88768
2017-05-31T13:31:15.632Z,46272
2017-05-31T13:32:25.309Z,82272
2017-05-31T13:33:34.230Z,83488
2017-05-31T13:34:43.464Z,87072
2017-05-31T13:35:52.699Z,88096
2017-05-31T13:37:01.615Z,83200
2017-05-31T13:38:10.954Z,79008
2017-05-31T13:39:19.929Z,79232
2017-05-31T13:40:28.848Z,13956
2017-05-31T13:41:37.760Z,25344
2017-05-31T13:42:47.000Z,89568
2017-05-31T13:43:56.215Z,90016
2017-05-31T13:45:05.122Z,88320
2017-05-31T13:46:14.038Z,85696
2017-05-31T13:47:23.275Z,85408
2017-05-31T13:48:32.187Z,89216
2017-05-31T13:49:41.577Z,89728
2017-05-31T13:50:51.149Z,82720
2017-05-31T13:52:00.390Z,89280
2017-05-31T13:53:09.304Z,9224
2017-05-31T13:54:18.540Z,8068
2017-05-31T13:55:27.609Z,9744
2017-05-31T13:56:36.539Z,9304
2017-05-31T13:57:45.455Z,88928
2017-05-31T13:58:54.425Z,88544
2017-05-31T14:00:03.660Z,83104
2017-05-31T14:01:12.677Z,86848
2017-05-31T14:02:21.917Z,87040
2017-05-31T14:03:31.150Z,88512
2017-05-31T14:04:40.066Z,87264
2017-05-31T14:05:49.305Z,69824
2017-05-31T14:06:58.970Z,66208
2017-05-31T14:08:07.883Z,13736
2017-05-31T14:09:17.125Z,84128
2017-05-31T14:10:26.041Z,76544
2017-05-31T14:11:34.962Z,86528
2017-05-31T14:12:44.521Z,85568
2017-05-31T14:13:54.081Z,84960
2017-05-31T14:15:03.000Z,90240
2017-05-31T14:16:11.922Z,86816
2017-05-31T14:17:20.834Z,82880
2017-05-31T14:18:30.497Z,85152
2017-05-31T14:19:39.741Z,86528
2017-05-31T14:20:48.982Z,86112
2017-05-31T14:21:57.892Z,89216
2017-05-31T14:23:07.137Z,10608
2017-05-31T14:24:16.854Z,88192
2017-05-31T14:25:25.772Z,79936
2017-05-31T14:26:34.700Z,58720
2017-05-31T14:27:43.954Z,81920
2017-05-31T14:28:53.192Z,85664
2017-05-31T14:30:02.577Z,87072
2017-05-31T14:31:11.820Z,90368
2017-05-31T14:32:21.062Z,86432
2017-05-31T14:33:30.627Z,78752
2017-05-31T14:34:40.199Z,68480
2017-05-31T14:35:49.540Z,68544
2017-05-31T14:36:58.780Z,82368
2017-05-31T14:38:07.711Z,89088
2017-05-31T14:39:16.634Z,77792
2017-05-31T14:40:25.877Z,81536
2017-05-31T14:41:35.093Z,82432
2017-05-31T14:42:44.013Z,86272
2017-05-31T14:43:53.254Z,89440
2017-05-31T14:45:02.171Z,84832
2017-05-31T14:46:11.088Z,59968
2017-05-31T14:47:20.155Z,81504
2017-05-31T14:48:29.079Z,60736
2017-05-31T14:49:38.646Z,19840
2017-05-31T14:50:47.563Z,22880
2017-05-31T14:51:56.803Z,66368
2017-05-31T14:53:06.196Z,80704
2017-05-31T14:54:15.112Z,67648
2017-05-31T14:55:24.024Z,42176
2017-05-31T14:56:33.610Z,23392
2017-05-31T14:57:42.845Z,12908
2017-05-31T14:58:51.907Z,72768
2017-05-31T15:00:01.153Z,74464
2017-05-31T15:01:10.074Z,81760
2017-05-31T15:02:18.987Z,47264
2017-05-31T15:03:27.903Z,42368
2017-05-31T15:04:36.990Z,48384
2017-05-31T15:05:45.903Z,41440
2017-05-31T15:06:54.817Z,77024
2017-05-31T15:08:04.058Z,47008
2017-05-31T15:09:12.971Z,80640
2017-05-31T15:10:22.137Z,78272
2017-05-31T15:11:31.056Z,71968
2017-05-31T15:12:39.977Z,61952
2017-05-31T15:13:49.214Z,75872
2017-05-31T15:14:58.128Z,75296
2017-05-31T15:16:07.517Z,78208
2017-05-31T15:17:16.427Z,73568
2017-05-31T15:18:25.343Z,58400
2017-05-31T15:19:34.257Z,75936
2017-05-31T15:20:43.170Z,74400
2017-05-31T15:21:52.341Z,70400
2017-05-31T15:23:01.902Z,67040
2017-05-31T15:24:11.145Z,66432
2017-05-31T15:25:20.060Z,65824
2017-05-31T15:26:28.984Z,62528
2017-05-31T15:27:37.900Z,57472
2017-05-31T15:28:47.138Z,54592
2017-05-31T15:29:56.378Z,59648
2017-05-31T15:31:05.947Z,63616
2017-05-31T15:32:14.864Z,60192